createdAt,value
2023-01-12T00:02:00.803Z,100134.00
2023-01-12T00:04:30.849Z,100148.00
2023-01-12T00:07:00.059Z,100124.00
2023-01-12T00:09:28.267Z,100127.00
2023-01-12T00:11:55.924Z,100130.00
2023-01-12T00:14:23.786Z,100127.00
2023-01-12T00:16:51.448Z,100128.00
2023-01-12T00:19:20.648Z,100133.00
2023-01-12T00:22:02.107Z,100133.00
2023-01-12T00:24:33.799Z,100123.00
2023-01-12T00:27:03.961Z,100128.00
2023-01-12T00:29:31.659Z,100122.00
2023-01-12T00:32:00.657Z,100120.00
2023-01-12T00:34:29.833Z,100125.00
2023-01-12T00:36:58.391Z,100119.00
2023-01-12T00:39:26.050Z,100134.00
2023-01-12T00:42:12.508Z,100108.00
2023-01-12T00:44:57.930Z,100118.00
2023-01-12T00:47:25.595Z,100110.00
2023-01-12T00:49:53.664Z,100122.00
2023-01-12T00:52:30.740Z,100108.00
2023-01-12T00:54:59.391Z,100115.00
2023-01-12T00:57:29.466Z,100102.00
2023-01-12T00:59:59.188Z,100106.00
2023-01-12T01:02:27.620Z,100109.00
2023-01-12T01:04:55.359Z,100113.00
2023-01-12T01:07:23.113Z,100113.00
2023-01-12T01:09:51.143Z,100108.00
2023-01-12T01:12:18.849Z,100117.00
2023-01-12T01:14:49.539Z,100117.00
2023-01-12T01:17:17.345Z,100110.00
2023-01-12T01:19:45.008Z,100108.00
2023-01-12T01:22:13.436Z,100106.00
2023-01-12T01:24:41.499Z,100113.00
2023-01-12T01:27:09.206Z,100103.00
2023-01-12T01:29:37.085Z,100104.00
2023-01-12T01:32:06.274Z,100112.00
2023-01-12T01:34:34.412Z,100100.00
2023-01-12T01:37:02.099Z,100101.00
2023-01-12T01:39:29.781Z,100101.00
2023-01-12T01:41:57.434Z,100093.00
2023-01-12T01:44:50.528Z,100098.00
2023-01-12T01:47:26.977Z,100087.00
2023-01-12T01:49:57.607Z,100092.00
2023-01-12T01:52:29.867Z,100096.00
2023-01-12T01:55:02.855Z,100075.00
2023-01-12T01:57:35.345Z,100074.00
2023-01-12T02:00:05.521Z,100090.00
2023-01-12T02:02:36.619Z,100084.00
2023-01-12T02:05:04.790Z,100079.00
2023-01-12T02:07:33.424Z,100081.00
2023-01-12T02:10:01.339Z,100085.00
2023-01-12T02:12:46.349Z,100082.00
2023-01-12T02:15:31.547Z,100079.00
2023-01-12T02:18:11.265Z,100074.00
2023-01-12T02:20:49.297Z,100076.00
2023-01-12T02:23:54.487Z,100081.00
2023-01-12T02:27:04.529Z,100076.00
2023-01-12T02:30:07.938Z,100077.00
2023-01-12T02:32:43.517Z,100074.00
2023-01-12T02:35:22.749Z,100081.00
2023-01-12T02:37:59.727Z,100060.00
2023-01-12T02:40:35.989Z,100067.00
2023-01-12T02:43:07.723Z,100073.00
2023-01-12T02:45:42.892Z,100059.00
2023-01-12T02:48:20.751Z,100060.00
2023-01-12T02:50:54.072Z,100052.00
2023-01-12T02:53:28.629Z,100053.00
2023-01-12T02:55:57.462Z,100050.00
2023-01-12T02:58:28.231Z,100045.00
2023-01-12T03:00:59.142Z,100035.00
2023-01-12T03:03:28.337Z,100035.00
2023-01-12T03:05:57.268Z,100028.00
2023-01-12T03:08:28.669Z,100040.00
2023-01-12T03:11:06.459Z,100029.00
2023-01-12T03:13:38.023Z,100030.00
2023-01-12T03:16:07.391Z,100030.00
2023-01-12T03:18:39.905Z,100028.00
2023-01-12T03:21:13.971Z,100028.00
2023-01-12T03:23:45.708Z,100039.00
2023-01-12T03:26:16.158Z,100025.00
2023-01-12T03:28:47.627Z,100041.00
2023-01-12T03:31:15.514Z,100021.00
2023-01-12T03:33:46.445Z,100045.00
2023-01-12T03:36:20.267Z,100031.00
2023-01-12T03:39:00.496Z,100025.00
2023-01-12T03:41:36.357Z,100015.00
2023-01-12T03:44:06.719Z,100018.00
2023-01-12T03:46:40.966Z,100022.00
2023-01-12T03:49:14.997Z,100028.00
2023-01-12T03:51:48.464Z,100022.00
2023-01-12T03:54:17.105Z,100023.00
2023-01-12T03:56:46.180Z,100017.00
2023-01-12T03:59:14.704Z,100015.00
2023-01-12T04:01:43.323Z,100012.00
2023-01-12T04:04:12.378Z,100013.00
2023-01-12T04:06:40.027Z,100001.00
2023-01-12T04:09:08.009Z,99980.00
2023-01-12T04:11:53.294Z,99995.00
2023-01-12T04:14:20.996Z,99991.00
2023-01-12T04:16:48.675Z,99988.00
2023-01-12T04:19:17.720Z,99993.00
2023-01-12T04:22:03.269Z,99998.00
2023-01-12T04:24:30.941Z,99984.00
2023-01-12T04:26:58.603Z,100000.00
2023-01-12T04:29:26.286Z,99980.00
2023-01-12T04:31:53.991Z,99977.00
2023-01-12T04:34:23.606Z,99961.00
2023-01-12T04:36:51.255Z,99966.00
2023-01-12T04:39:18.943Z,99976.00
2023-01-12T04:41:46.577Z,99971.00
2023-01-12T04:44:14.227Z,99974.00
2023-01-12T04:46:41.888Z,99968.00
2023-01-12T04:49:09.706Z,99954.00
2023-01-12T04:51:38.701Z,99957.00
2023-01-12T04:54:06.428Z,99946.00
2023-01-12T04:56:34.116Z,99940.00
2023-01-12T04:59:01.825Z,99945.00
2023-01-12T05:01:30.796Z,99933.00
2023-01-12T05:04:00.830Z,99931.00
2023-01-12T05:06:29.403Z,99932.00
2023-01-12T05:09:16.421Z,99931.00
2023-01-12T05:11:45.055Z,99923.00
2023-01-12T05:14:12.699Z,99924.00
2023-01-12T05:16:40.420Z,99927.00
2023-01-12T05:19:08.184Z,99925.00
2023-01-12T05:21:35.838Z,99915.00
2023-01-12T05:24:05.115Z,99917.00
2023-01-12T05:26:32.767Z,99900.00
2023-01-12T05:29:00.423Z,99899.00
2023-01-12T05:31:28.170Z,99901.00
2023-01-12T05:33:55.897Z,99887.00
2023-01-12T05:36:25.697Z,99896.00
2023-01-12T05:38:54.222Z,99884.00
2023-01-12T05:41:23.794Z,99875.00
2023-01-12T05:43:50.556Z,99870.00
2023-01-12T05:46:20.205Z,99879.00
2023-01-12T05:48:48.463Z,99873.00
2023-01-12T05:51:16.524Z,99861.00
2023-01-12T05:53:44.375Z,99858.00
2023-01-12T05:56:15.916Z,99855.00
2023-01-12T05:58:49.250Z,99850.00
2023-01-12T06:01:17.044Z,99856.00
2023-01-12T06:03:44.782Z,99850.00
2023-01-12T06:06:12.433Z,99846.00
2023-01-12T06:08:40.072Z,99851.00
2023-01-12T06:11:27.738Z,99837.00
2023-01-12T06:13:58.682Z,99839.00
2023-01-12T06:16:26.454Z,99833.00
2023-01-12T06:18:54.290Z,99838.00
2023-01-12T06:21:22.414Z,99826.00
2023-01-12T06:23:50.806Z,99818.00
2023-01-12T06:26:18.480Z,99823.00
2023-01-12T06:28:46.198Z,99807.00
2023-01-12T06:31:15.630Z,99811.00
2023-01-12T06:33:43.784Z,99806.00
2023-01-12T06:36:12.531Z,99821.00
2023-01-12T06:38:40.624Z,99808.00
2023-01-12T06:41:31.399Z,99804.00
2023-01-12T06:43:59.453Z,99802.00
2023-01-12T06:46:28.948Z,99799.00
2023-01-12T06:48:57.292Z,99803.00
2023-01-12T06:51:25.145Z,99788.00
2023-01-12T06:53:53.023Z,99800.00
2023-01-12T06:56:21.421Z,99784.00
2023-01-12T06:58:49.553Z,99781.00
2023-01-12T07:01:17.384Z,99778.00
2023-01-12T07:03:46.571Z,99778.00
2023-01-12T07:06:14.427Z,99768.00
2023-01-12T07:08:42.846Z,99770.00
2023-01-12T07:11:12.576Z,99751.00
2023-01-12T07:13:40.524Z,99756.00
2023-01-12T07:16:08.858Z,99755.00
2023-01-12T07:18:36.690Z,99750.00
2023-01-12T07:21:07.693Z,99752.00
2023-01-12T07:23:35.468Z,99741.00
2023-01-12T07:26:03.792Z,99726.00
2023-01-12T07:28:33.697Z,99729.00
2023-01-12T07:31:02.438Z,99735.00
2023-01-12T07:33:30.210Z,99719.00
2023-01-12T07:35:59.768Z,99721.00
2023-01-12T07:38:29.849Z,99718.00
2023-01-12T07:40:59.430Z,99719.00
2023-01-12T07:43:28.447Z,99711.00
2023-01-12T07:45:57.688Z,99702.00
2023-01-12T07:48:26.723Z,99704.00
2023-01-12T07:50:54.638Z,99714.00
2023-01-12T07:53:22.446Z,99688.00
2023-01-12T07:55:51.491Z,99689.00
2023-01-12T07:58:19.213Z,99677.00
2023-01-12T08:00:46.911Z,99654.00
2023-01-12T08:03:14.982Z,99676.00
2023-01-12T08:05:42.975Z,99672.00
2023-01-12T08:08:10.699Z,99676.00
2023-01-12T08:10:38.582Z,99678.00
2023-01-12T08:13:07.622Z,99674.00
2023-01-12T08:15:41.477Z,99664.00
2023-01-12T08:18:15.530Z,99676.00
2023-01-12T08:20:43.735Z,99665.00
2023-01-12T08:23:16.654Z,99655.00
2023-01-12T08:25:47.683Z,99660.00
2023-01-12T08:28:20.256Z,99666.00
2023-01-12T08:30:49.923Z,99659.00
2023-01-12T08:33:18.019Z,99655.00
2023-01-12T08:35:47.143Z,99656.00
2023-01-12T08:38:14.905Z,99647.00
2023-01-12T08:40:59.859Z,99640.00
2023-01-12T08:43:46.863Z,99641.00
2023-01-12T08:46:14.764Z,99650.00
2023-01-12T08:48:42.541Z,99642.00
2023-01-12T08:51:10.228Z,99637.00
2023-01-12T08:53:37.905Z,99653.00
2023-01-12T08:56:07.298Z,99618.00
2023-01-12T08:58:36.321Z,99603.00
2023-01-12T09:01:09.677Z,99632.00
2023-01-12T09:03:37.741Z,99653.00
2023-01-12T09:06:14.439Z,99647.00
2023-01-12T09:08:42.424Z,99645.00
2023-01-12T09:11:11.488Z,99640.00
2023-01-12T09:13:41.003Z,99644.00
2023-01-12T09:16:13.188Z,99620.00
2023-01-12T09:18:41.775Z,99626.00
2023-01-12T09:21:11.291Z,99633.00
2023-01-12T09:23:39.993Z,99643.00
2023-01-12T09:26:09.264Z,99628.00
2023-01-12T09:28:37.562Z,99635.00
2023-01-12T09:31:08.810Z,99629.00
2023-01-12T09:33:37.460Z,99641.00
2023-01-12T09:36:07.806Z,99633.00
2023-01-12T09:38:36.793Z,99630.00
2023-01-12T09:41:12.206Z,99614.00
2023-01-12T09:43:59.086Z,99634.00
2023-01-12T09:46:49.239Z,99646.00
2023-01-12T09:49:19.527Z,99654.00
2023-01-12T09:51:55.474Z,99649.00
2023-01-12T09:54:23.393Z,99654.00
2023-01-12T09:56:58.069Z,99647.00
2023-01-12T09:59:36.151Z,99639.00
2023-01-12T10:02:10.477Z,99639.00
2023-01-12T10:04:38.674Z,99642.00
2023-01-12T10:07:06.653Z,99663.00
2023-01-12T10:09:34.709Z,99645.00
2023-01-12T10:12:13.057Z,99654.00
2023-01-12T10:14:58.441Z,99652.00
2023-01-12T10:17:42.320Z,99650.00
2023-01-12T10:20:23.763Z,99659.00
2023-01-12T10:22:54.669Z,99666.00
2023-01-12T10:25:31.724Z,99670.00
2023-01-12T10:28:01.433Z,99652.00
2023-01-12T10:30:33.456Z,99647.00
2023-01-12T10:33:12.103Z,99658.00
2023-01-12T10:35:51.308Z,99657.00
2023-01-12T10:38:25.329Z,99654.00
2023-01-12T10:41:13.772Z,99658.00
2023-01-12T10:43:43.565Z,99663.00
2023-01-12T10:46:14.414Z,99646.00
2023-01-12T10:48:45.886Z,99649.00
2023-01-12T10:51:28.359Z,99647.00
2023-01-12T10:53:59.855Z,99644.00
2023-01-12T10:56:31.970Z,99655.00
2023-01-12T10:59:03.592Z,99640.00
2023-01-12T11:01:45.118Z,99650.00
2023-01-12T11:04:16.540Z,99652.00
2023-01-12T11:06:46.707Z,99665.00
2023-01-12T11:09:25.126Z,99645.00
2023-01-12T11:11:57.348Z,99652.00
2023-01-12T11:14:30.780Z,99622.00
2023-01-12T11:17:15.956Z,99648.00
2023-01-12T11:19:46.728Z,99659.00
2023-01-12T11:22:20.796Z,99654.00
2023-01-12T11:24:52.967Z,99648.00
2023-01-12T11:27:27.313Z,99648.00
2023-01-12T11:29:58.930Z,99646.00
2023-01-12T11:32:34.492Z,99643.00
2023-01-12T11:35:09.472Z,99647.00
2023-01-12T11:37:42.522Z,99647.00
2023-01-12T11:40:23.583Z,99639.00
2023-01-12T11:43:10.904Z,99644.00
2023-01-12T11:45:46.154Z,99641.00
2023-01-12T11:48:23.808Z,99645.00
2023-01-12T11:50:54.880Z,99654.00
2023-01-12T11:53:25.489Z,99633.00
2023-01-12T11:56:10.914Z,99633.00
2023-01-12T11:58:49.478Z,99628.00
2023-01-12T12:01:24.271Z,99632.00
2023-01-12T12:03:59.937Z,99639.00
2023-01-12T12:06:57.749Z,99626.00
2023-01-12T12:09:40.015Z,99620.00
2023-01-12T12:12:17.021Z,99623.00
2023-01-12T12:15:01.428Z,99624.00
2023-01-12T12:17:41.883Z,99623.00
2023-01-12T12:20:18.968Z,99623.00
2023-01-12T12:23:00.649Z,99619.00
2023-01-12T12:25:33.830Z,99632.00
2023-01-12T12:28:20.133Z,99617.00
2023-01-12T12:31:03.781Z,99629.00
2023-01-12T12:33:40.734Z,99623.00
2023-01-12T12:36:19.211Z,99638.00
2023-01-12T12:39:25.738Z,99631.00
2023-01-12T12:42:19.166Z,99624.00
2023-01-12T12:45:14.256Z,99619.00
2023-01-12T12:47:54.480Z,99625.00
2023-01-12T12:50:24.902Z,99622.00
2023-01-12T12:53:06.541Z,99620.00
2023-01-12T12:55:37.450Z,99614.00
2023-01-12T12:58:07.475Z,99632.00
2023-01-12T13:00:42.252Z,99629.00
2023-01-12T13:03:10.498Z,99630.00
2023-01-12T13:05:44.219Z,99634.00
2023-01-12T13:08:21.769Z,99632.00
2023-01-12T13:10:53.762Z,99626.00
2023-01-12T13:13:28.455Z,99626.00
2023-01-12T13:16:42.607Z,99638.00
2023-01-12T13:19:15.681Z,99621.00
2023-01-12T13:21:58.513Z,99611.00
2023-01-12T13:24:29.255Z,99619.00
2023-01-12T13:27:00.701Z,99630.00
2023-01-12T13:29:44.202Z,99625.00
2023-01-12T13:32:34.855Z,99632.00
2023-01-12T13:35:02.563Z,99627.00
2023-01-12T13:37:39.772Z,99637.00
2023-01-12T13:40:14.432Z,99627.00
2023-01-12T13:43:02.894Z,99616.00
2023-01-12T13:45:31.296Z,99629.00
2023-01-12T13:47:59.290Z,99639.00
2023-01-12T13:50:30.495Z,99626.00
2023-01-12T13:52:59.465Z,99650.00
2023-01-12T13:55:29.225Z,99639.00
2023-01-12T13:58:00.789Z,99639.00
2023-01-12T14:00:30.490Z,99643.00
2023-01-12T14:02:58.615Z,99640.00
2023-01-12T14:05:39.566Z,99642.00
2023-01-12T14:08:22.426Z,99643.00
2023-01-12T14:10:57.497Z,99641.00
2023-01-12T14:13:50.292Z,99639.00
2023-01-12T14:16:36.217Z,99641.00
2023-01-12T14:19:26.496Z,99643.00
2023-01-12T14:22:00.002Z,99635.00
2023-01-12T14:24:27.701Z,99632.00
2023-01-12T14:26:55.452Z,99641.00
2023-01-12T14:29:24.500Z,99637.00
2023-01-12T14:31:53.971Z,99635.00
2023-01-12T14:34:29.664Z,99646.00
2023-01-12T14:36:57.838Z,99654.00
2023-01-12T14:39:27.967Z,99651.00
2023-01-12T14:42:14.828Z,99640.00
2023-01-12T14:45:09.585Z,99647.00
2023-01-12T14:47:37.619Z,99648.00
2023-01-12T14:50:17.327Z,99645.00
2023-01-12T14:52:47.146Z,99644.00
2023-01-12T14:55:16.030Z,99643.00
2023-01-12T14:57:44.462Z,99641.00
2023-01-12T15:00:23.515Z,99647.00
2023-01-12T15:02:53.079Z,99636.00
2023-01-12T15:05:25.444Z,99637.00
2023-01-12T15:07:59.068Z,99647.00
2023-01-12T15:10:32.328Z,99645.00
2023-01-12T15:13:22.622Z,99645.00
2023-01-12T15:16:07.648Z,99642.00
2023-01-12T15:18:54.034Z,99650.00
2023-01-12T15:21:40.085Z,99646.00
2023-01-12T15:24:39.682Z,99647.00
2023-01-12T15:27:08.174Z,99639.00
2023-01-12T15:29:36.105Z,99646.00
2023-01-12T15:32:11.028Z,99639.00
2023-01-12T15:34:38.720Z,99642.00
2023-01-12T15:37:06.378Z,99650.00
2023-01-12T15:39:34.047Z,99651.00
2023-01-12T15:42:21.387Z,99647.00
2023-01-12T15:44:50.406Z,99647.00
2023-01-12T15:47:20.369Z,99647.00
2023-01-12T15:49:51.135Z,99656.00
2023-01-12T15:52:21.379Z,99662.00
2023-01-12T15:54:49.050Z,99647.00
2023-01-12T15:57:17.321Z,99657.00
2023-01-12T15:59:45.200Z,99648.00
2023-01-12T16:02:36.850Z,99650.00
2023-01-12T16:05:06.535Z,99652.00
2023-01-12T16:07:34.471Z,99654.00
2023-01-12T16:10:02.248Z,99650.00
2023-01-12T16:12:30.459Z,99646.00
2023-01-12T16:14:58.782Z,99650.00
2023-01-12T16:17:26.905Z,99652.00
2023-01-12T16:19:55.956Z,99647.00
2023-01-12T16:22:26.327Z,99638.00
2023-01-12T16:24:55.671Z,99657.00
2023-01-12T16:27:24.857Z,99645.00
2023-01-12T16:29:52.664Z,99650.00
2023-01-12T16:32:24.894Z,99644.00
2023-01-12T16:34:53.150Z,99651.00
2023-01-12T16:37:23.151Z,99650.00
2023-01-12T16:39:51.050Z,99647.00
2023-01-12T16:42:18.738Z,99645.00
2023-01-12T16:44:49.378Z,99647.00
2023-01-12T16:47:19.493Z,99645.00
2023-01-12T16:49:49.881Z,99642.00
2023-01-12T16:52:19.664Z,99623.00
2023-01-12T16:54:48.752Z,99637.00
2023-01-12T16:57:18.154Z,99637.00
2023-01-12T16:59:46.195Z,99642.00
2023-01-12T17:02:16.973Z,99636.00
2023-01-12T17:04:45.712Z,99628.00
2023-01-12T17:07:13.901Z,99636.00
2023-01-12T17:09:41.844Z,99624.00
2023-01-12T17:12:11.393Z,99632.00
2023-01-12T17:14:39.241Z,99629.00
2023-01-12T17:17:09.503Z,99633.00
2023-01-12T17:19:39.302Z,99624.00
2023-01-12T17:22:08.399Z,99612.00
2023-01-12T17:24:39.626Z,99613.00
2023-01-12T17:27:08.156Z,99632.00
2023-01-12T17:29:37.576Z,99615.00
2023-01-12T17:32:07.262Z,99617.00
2023-01-12T17:34:37.737Z,99606.00
2023-01-12T17:37:08.219Z,99609.00
2023-01-12T17:39:37.440Z,99609.00
2023-01-12T17:42:22.951Z,99611.00
2023-01-12T17:44:52.020Z,99608.00
2023-01-12T17:47:19.754Z,99602.00
2023-01-12T17:49:47.839Z,99613.00
2023-01-12T17:52:15.732Z,99602.00
2023-01-12T17:54:43.798Z,99604.00
2023-01-12T17:57:11.698Z,99607.00
2023-01-12T17:59:39.408Z,99604.00
2023-01-12T18:02:08.740Z,99594.00
2023-01-12T18:04:36.396Z,99607.00
2023-01-12T18:07:04.074Z,99598.00
2023-01-12T18:09:32.224Z,99606.00
2023-01-12T18:12:00.296Z,99602.00
2023-01-12T18:14:28.204Z,99604.00
2023-01-12T18:16:57.295Z,99610.00
2023-01-12T18:19:26.414Z,99599.00
2023-01-12T18:21:54.161Z,99604.00
2023-01-12T18:24:22.269Z,99605.00
2023-01-12T18:26:50.849Z,99601.00
2023-01-12T18:29:18.636Z,99613.00
2023-01-12T18:31:47.238Z,99606.00
2023-01-12T18:34:16.576Z,99598.00
2023-01-12T18:36:45.691Z,99596.00
2023-01-12T18:39:16.106Z,99599.00
2023-01-12T18:42:02.529Z,99605.00
2023-01-12T18:44:31.104Z,99597.00
2023-01-12T18:47:16.967Z,99585.00
2023-01-12T18:49:45.872Z,99588.00
2023-01-12T18:52:32.583Z,99584.00
2023-01-12T18:55:00.511Z,99587.00
2023-01-12T18:57:30.395Z,99588.00
2023-01-12T19:00:10.005Z,99592.00
2023-01-12T19:02:37.729Z,99594.00
2023-01-12T19:05:19.449Z,99583.00
2023-01-12T19:08:04.497Z,99577.00
2023-01-12T19:10:33.594Z,99585.00
2023-01-12T19:13:18.935Z,99595.00
2023-01-12T19:16:04.473Z,99569.00
2023-01-12T19:18:32.201Z,99583.00
2023-01-12T19:21:16.754Z,99570.00
2023-01-12T19:24:03.215Z,99572.00
2023-01-12T19:26:48.529Z,99561.00
2023-01-12T19:29:16.199Z,99562.00
2023-01-12T19:31:43.957Z,99567.00
2023-01-12T19:34:11.680Z,99574.00
2023-01-12T19:36:39.428Z,99566.00
2023-01-12T19:39:09.998Z,99545.00
2023-01-12T19:41:56.472Z,99550.00
2023-01-12T19:44:24.145Z,99553.00
2023-01-12T19:46:51.884Z,99555.00
2023-01-12T19:49:19.617Z,99556.00
2023-01-12T19:51:47.339Z,99553.00
2023-01-12T19:54:16.546Z,99557.00
2023-01-12T19:56:47.213Z,99569.00
2023-01-12T19:59:14.872Z,99563.00
2023-01-12T20:01:42.687Z,99545.00
2023-01-12T20:04:10.395Z,99539.00
2023-01-12T20:06:38.095Z,99554.00
2023-01-12T20:09:05.818Z,99538.00
2023-01-12T20:11:34.850Z,99542.00
2023-01-12T20:14:02.501Z,99538.00
2023-01-12T20:16:30.645Z,99541.00
2023-01-12T20:18:59.474Z,99533.00
2023-01-12T20:21:27.524Z,99542.00
2023-01-12T20:23:55.190Z,99536.00
2023-01-12T20:26:23.131Z,99532.00
2023-01-12T20:28:52.269Z,99536.00
2023-01-12T20:31:21.117Z,99534.00
2023-01-12T20:33:49.070Z,99549.00
2023-01-12T20:36:18.673Z,99537.00
2023-01-12T20:38:46.978Z,99547.00
2023-01-12T20:41:14.916Z,99546.00
2023-01-12T20:43:42.643Z,99536.00
2023-01-12T20:46:14.238Z,99538.00
2023-01-12T20:48:42.508Z,99556.00
2023-01-12T20:51:11.448Z,99541.00
2023-01-12T20:53:40.412Z,99545.00
2023-01-12T20:56:08.798Z,99535.00
2023-01-12T20:58:37.001Z,99549.00
2023-01-12T21:01:11.200Z,99542.00
2023-01-12T21:03:39.370Z,99554.00
2023-01-12T21:06:09.620Z,99550.00
2023-01-12T21:08:39.264Z,99562.00
2023-01-12T21:11:07.050Z,99555.00
2023-01-12T21:13:34.779Z,99571.00
2023-01-12T21:16:04.053Z,99574.00
2023-01-12T21:18:33.976Z,99569.00
2023-01-12T21:21:01.985Z,99567.00
2023-01-12T21:23:30.492Z,99575.00
2023-01-12T21:25:59.146Z,99563.00
2023-01-12T21:28:29.199Z,99574.00
2023-01-12T21:31:01.266Z,99569.00
2023-01-12T21:33:28.991Z,99568.00
2023-01-12T21:35:58.597Z,99564.00
2023-01-12T21:38:27.205Z,99571.00
2023-01-12T21:40:54.923Z,99573.00
2023-01-12T21:43:22.939Z,99568.00
2023-01-12T21:45:53.900Z,99557.00
2023-01-12T21:48:22.856Z,99553.00
2023-01-12T21:50:51.026Z,99545.00
2023-01-12T21:53:22.190Z,99542.00
2023-01-12T21:55:54.448Z,99550.00
2023-01-12T21:58:22.538Z,99541.00
2023-01-12T22:00:50.286Z,99517.00
2023-01-12T22:03:18.459Z,99531.00
2023-01-12T22:05:47.787Z,99522.00
2023-01-12T22:08:15.451Z,99528.00
2023-01-12T22:10:44.546Z,99529.00
2023-01-12T22:13:15.054Z,99511.00
2023-01-12T22:15:43.027Z,99526.00
2023-01-12T22:18:11.377Z,99539.00
2023-01-12T22:20:40.014Z,99532.00
2023-01-12T22:23:08.475Z,99525.00
2023-01-12T22:25:36.153Z,99527.00
2023-01-12T22:28:06.273Z,99539.00
2023-01-12T22:30:34.550Z,99534.00
2023-01-12T22:33:02.670Z,99534.00
2023-01-12T22:35:30.306Z,99523.00
2023-01-12T22:37:58.104Z,99523.00
2023-01-12T22:40:25.732Z,99530.00
2023-01-12T22:43:10.862Z,99531.00
2023-01-12T22:45:40.430Z,99531.00
2023-01-12T22:48:08.375Z,99521.00
2023-01-12T22:50:36.102Z,99522.00
2023-01-12T22:53:03.784Z,99525.00
2023-01-12T22:55:31.464Z,99537.00
2023-01-12T22:57:59.150Z,99525.00
2023-01-12T23:00:26.823Z,99529.00
2023-01-12T23:03:02.457Z,99529.00
2023-01-12T23:05:33.557Z,99537.00
2023-01-12T23:08:01.258Z,99537.00
2023-01-12T23:10:29.440Z,99534.00
2023-01-12T23:13:15.523Z,99527.00
2023-01-12T23:15:46.589Z,99522.00
2023-01-12T23:18:17.812Z,99520.00
2023-01-12T23:20:46.314Z,99509.00
2023-01-12T23:23:15.068Z,99506.00
2023-01-12T23:25:44.403Z,99516.00
2023-01-12T23:28:13.246Z,99504.00
2023-01-12T23:30:41.524Z,99504.00
2023-01-12T23:33:09.369Z,99513.00
2023-01-12T23:35:39.902Z,99507.00
2023-01-12T23:38:08.882Z,99504.00
2023-01-12T23:40:36.587Z,99505.00
2023-01-12T23:43:04.304Z,99490.00
2023-01-12T23:45:34.151Z,99493.00
2023-01-12T23:48:01.845Z,99492.00
2023-01-12T23:50:29.604Z,99493.00
2023-01-12T23:52:58.673Z,99482.00
2023-01-12T23:55:27.411Z,99495.00
2023-01-12T23:57:55.094Z,99496.00
